sensor_id;sensor_type;location;lat;lon;timestamp;P1;durP1;ratioP1;P2;durP2;ratioP2
26953;SDS011;14508;50.924;11.600;2023-03-01T00:01:15;37.58;;;13.05;;
26953;SDS011;14508;50.924;11.600;2023-03-01T00:03:45;42.15;;;14.20;;
26953;SDS011;14508;50.924;11.600;2023-03-01T00:06:13;30.23;;;13.85;;
26953;SDS011;14508;50.924;11.600;2023-03-01T00:08:42;34.80;;;14.00;;
26953;SDS011;14508;50.924;11.600;2023-03-01T00:11:12;31.30;;;12.70;;
26953;SDS011;14508;50.924;11.600;2023-03-01T00:13:41;30.38;;;12.82;;
26953;SDS011;14508;50.924;11.600;2023-03-01T00:16:11;36.53;;;13.93;;
26953;SDS011;14508;50.924;11.600;2023-03-01T00:18:41;36.40;;;13.80;;
26953;SDS011;14508;50.924;11.600;2023-03-01T00:21:09;33.55;;;13.13;;
26953;SDS011;14508;50.924;11.600;2023-03-01T00:23:38;35.53;;;14.43;;
26953;SDS011;14508;50.924;11.600;2023-03-01T00:26:08;32.38;;;13.32;;
26953;SDS011;14508;50.924;11.600;2023-03-01T00:28:39;36.65;;;14.25;;
26953;SDS011;14508;50.924;11.600;2023-03-01T00:31:08;37.35;;;14.00;;
26953;SDS011;14508;50.924;11.600;2023-03-01T00:33:37;37.75;;;13.93;;
26953;SDS011;14508;50.924;11.600;2023-03-01T00:36:06;42.58;;;13.82;;
26953;SDS011;14508;50.924;11.600;2023-03-01T00:38:35;33.92;;;14.25;;
26953;SDS011;14508;50.924;11.600;2023-03-01T00:41:03;48.38;;;14.60;;
26953;SDS011;14508;50.924;11.600;2023-03-01T00:43:33;37.20;;;13.45;;
26953;SDS011;14508;50.924;11.600;2023-03-01T00:46:03;31.38;;;12.13;;
26953;SDS011;14508;50.924;11.600;2023-03-01T00:48:32;35.03;;;14.27;;
26953;SDS011;14508;50.924;11.600;2023-03-01T00:51:04;36.60;;;13.43;;
26953;SDS011;14508;50.924;11.600;2023-03-01T00:53:33;34.88;;;13.05;;
26953;SDS011;14508;50.924;11.600;2023-03-01T00:56:01;37.72;;;14.43;;
26953;SDS011;14508;50.924;11.600;2023-03-01T00:58:30;40.45;;;14.88;;
26953;SDS011;14508;50.924;11.600;2023-03-01T01:00:59;38.80;;;14.45;;
26953;SDS011;14508;50.924;11.600;2023-03-01T01:03:27;35.08;;;13.45;;
26953;SDS011;14508;50.924;11.600;2023-03-01T01:05:55;31.92;;;12.93;;
26953;SDS011;14508;50.924;11.600;2023-03-01T01:08:22;40.38;;;14.50;;
26953;SDS011;14508;50.924;11.600;2023-03-01T01:10:50;35.10;;;14.98;;
26953;SDS011;14508;50.924;11.600;2023-03-01T01:13:18;42.47;;;15.02;;
26953;SDS011;14508;50.924;11.600;2023-03-01T01:15:47;39.00;;;14.57;;
26953;SDS011;14508;50.924;11.600;2023-03-01T01:18:16;36.83;;;14.70;;
26953;SDS011;14508;50.924;11.600;2023-03-01T01:20:44;35.65;;;13.73;;
26953;SDS011;14508;50.924;11.600;2023-03-01T01:23:12;48.25;;;15.02;;
26953;SDS011;14508;50.924;11.600;2023-03-01T01:25:39;38.22;;;13.80;;
26953;SDS011;14508;50.924;11.600;2023-03-01T01:28:07;44.17;;;14.48;;
26953;SDS011;14508;50.924;11.600;2023-03-01T01:30:35;42.55;;;12.95;;
26953;SDS011;14508;50.924;11.600;2023-03-01T01:33:03;33.17;;;13.52;;
26953;SDS011;14508;50.924;11.600;2023-03-01T01:35:32;34.55;;;13.30;;
26953;SDS011;14508;50.924;11.600;2023-03-01T01:38:00;39.17;;;13.98;;
26953;SDS011;14508;50.924;11.600;2023-03-01T01:40:28;32.92;;;13.25;;
26953;SDS011;14508;50.924;11.600;2023-03-01T01:42:56;38.92;;;14.10;;
26953;SDS011;14508;50.924;11.600;2023-03-01T01:45:24;31.48;;;13.75;;
26953;SDS011;14508;50.924;11.600;2023-03-01T01:47:58;34.55;;;14.65;;
26953;SDS011;14508;50.924;11.600;2023-03-01T01:50:32;35.75;;;13.48;;
26953;SDS011;14508;50.924;11.600;2023-03-01T01:53:05;32.83;;;13.65;;
26953;SDS011;14508;50.924;11.600;2023-03-01T01:55:36;37.60;;;14.15;;
26953;SDS011;14508;50.924;11.600;2023-03-01T01:58:07;29.27;;;12.77;;
26953;SDS011;14508;50.924;11.600;2023-03-01T02:00:38;31.85;;;14.32;;
26953;SDS011;14508;50.924;11.600;2023-03-01T02:03:07;36.78;;;14.45;;
26953;SDS011;14508;50.924;11.600;2023-03-01T02:05:40;44.75;;;15.27;;
26953;SDS011;14508;50.924;11.600;2023-03-01T02:08:21;41.85;;;14.30;;
26953;SDS011;14508;50.924;11.600;2023-03-01T02:10:52;41.60;;;14.15;;
26953;SDS011;14508;50.924;11.600;2023-03-01T02:13:21;36.92;;;13.35;;
26953;SDS011;14508;50.924;11.600;2023-03-01T02:15:50;39.70;;;13.60;;
26953;SDS011;14508;50.924;11.600;2023-03-01T02:18:20;39.55;;;14.30;;
26953;SDS011;14508;50.924;11.600;2023-03-01T02:20:54;38.08;;;14.25;;
26953;SDS011;14508;50.924;11.600;2023-03-01T02:23:32;42.40;;;15.02;;
26953;SDS011;14508;50.924;11.600;2023-03-01T02:26:02;43.28;;;14.13;;
26953;SDS011;14508;50.924;11.600;2023-03-01T02:28:36;46.60;;;14.60;;
26953;SDS011;14508;50.924;11.600;2023-03-01T02:31:07;43.50;;;14.40;;
26953;SDS011;14508;50.924;11.600;2023-03-01T02:33:53;35.58;;;13.57;;
26953;SDS011;14508;50.924;11.600;2023-03-01T02:36:24;36.03;;;13.63;;
26953;SDS011;14508;50.924;11.600;2023-03-01T02:38:55;38.90;;;12.80;;
26953;SDS011;14508;50.924;11.600;2023-03-01T02:41:27;37.70;;;14.70;;
26953;SDS011;14508;50.924;11.600;2023-03-01T02:43:59;40.30;;;13.35;;
26953;SDS011;14508;50.924;11.600;2023-03-01T02:46:27;32.30;;;13.38;;
26953;SDS011;14508;50.924;11.600;2023-03-01T02:48:56;32.50;;;13.18;;
26953;SDS011;14508;50.924;11.600;2023-03-01T02:51:40;39.80;;;14.95;;
26953;SDS011;14508;50.924;11.600;2023-03-01T02:54:17;37.22;;;14.65;;
26953;SDS011;14508;50.924;11.600;2023-03-01T02:56:51;46.17;;;14.63;;
26953;SDS011;14508;50.924;11.600;2023-03-01T02:59:22;35.20;;;13.75;;
26953;SDS011;14508;50.924;11.600;2023-03-01T03:02:01;43.22;;;15.65;;
26953;SDS011;14508;50.924;11.600;2023-03-01T03:04:29;36.75;;;15.25;;
26953;SDS011;14508;50.924;11.600;2023-03-01T03:06:57;40.65;;;14.45;;
26953;SDS011;14508;50.924;11.600;2023-03-01T03:09:25;29.48;;;12.77;;
26953;SDS011;14508;50.924;11.600;2023-03-01T03:11:55;33.00;;;13.95;;
26953;SDS011;14508;50.924;11.600;2023-03-01T03:14:24;33.10;;;14.52;;
26953;SDS011;14508;50.924;11.600;2023-03-01T03:16:52;36.88;;;13.82;;
26953;SDS011;14508;50.924;11.600;2023-03-01T03:19:21;36.70;;;13.98;;
26953;SDS011;14508;50.924;11.600;2023-03-01T03:21:48;35.05;;;13.98;;
26953;SDS011;14508;50.924;11.600;2023-03-01T03:24:16;37.38;;;14.48;;
26953;SDS011;14508;50.924;11.600;2023-03-01T03:26:44;42.08;;;17.08;;
26953;SDS011;14508;50.924;11.600;2023-03-01T03:29:12;39.85;;;15.18;;
26953;SDS011;14508;50.924;11.600;2023-03-01T03:31:41;40.83;;;14.95;;
26953;SDS011;14508;50.924;11.600;2023-03-01T03:34:09;35.55;;;14.98;;
26953;SDS011;14508;50.924;11.600;2023-03-01T03:36:44;42.05;;;14.98;;
26953;SDS011;14508;50.924;11.600;2023-03-01T03:39:12;36.97;;;13.43;;
26953;SDS011;14508;50.924;11.600;2023-03-01T03:41:39;33.53;;;13.57;;
26953;SDS011;14508;50.924;11.600;2023-03-01T03:44:07;43.17;;;14.73;;
26953;SDS011;14508;50.924;11.600;2023-03-01T03:46:35;32.38;;;12.77;;
26953;SDS011;14508;50.924;11.600;2023-03-01T03:49:05;42.85;;;14.63;;
26953;SDS011;14508;50.924;11.600;2023-03-01T03:51:33;37.88;;;14.63;;
26953;SDS011;14508;50.924;11.600;2023-03-01T03:54:00;39.95;;;14.23;;
26953;SDS011;14508;50.924;11.600;2023-03-01T03:56:28;39.65;;;13.63;;
26953;SDS011;14508;50.924;11.600;2023-03-01T03:58:57;44.15;;;14.70;;
26953;SDS011;14508;50.924;11.600;2023-03-01T04:01:24;40.30;;;14.50;;
26953;SDS011;14508;50.924;11.600;2023-03-01T04:03:52;36.47;;;13.48;;
26953;SDS011;14508;50.924;11.600;2023-03-01T04:06:22;39.72;;;14.60;;
26953;SDS011;14508;50.924;11.600;2023-03-01T04:08:50;42.58;;;15.52;;
26953;SDS011;14508;50.924;11.600;2023-03-01T04:11:25;42.30;;;15.25;;
26953;SDS011;14508;50.924;11.600;2023-03-01T04:13:56;38.55;;;16.00;;
26953;SDS011;14508;50.924;11.600;2023-03-01T04:16:25;41.60;;;14.95;;
26953;SDS011;14508;50.924;11.600;2023-03-01T04:18:53;40.08;;;14.30;;
26953;SDS011;14508;50.924;11.600;2023-03-01T04:21:22;37.33;;;14.43;;
26953;SDS011;14508;50.924;11.600;2023-03-01T04:23:50;36.83;;;14.63;;
26953;SDS011;14508;50.924;11.600;2023-03-01T04:26:19;40.95;;;15.63;;
26953;SDS011;14508;50.924;11.600;2023-03-01T04:28:47;48.97;;;14.98;;
26953;SDS011;14508;50.924;11.600;2023-03-01T04:31:17;43.95;;;16.35;;
26953;SDS011;14508;50.924;11.600;2023-03-01T04:33:48;35.10;;;14.65;;
26953;SDS011;14508;50.924;11.600;2023-03-01T04:36:19;46.90;;;17.23;;
26953;SDS011;14508;50.924;11.600;2023-03-01T04:38:49;43.67;;;16.50;;
26953;SDS011;14508;50.924;11.600;2023-03-01T04:41:19;37.88;;;15.80;;
26953;SDS011;14508;50.924;11.600;2023-03-01T04:43:48;42.20;;;15.52;;
26953;SDS011;14508;50.924;11.600;2023-03-01T04:46:17;44.42;;;15.43;;
26953;SDS011;14508;50.924;11.600;2023-03-01T04:48:47;49.17;;;15.55;;
26953;SDS011;14508;50.924;11.600;2023-03-01T04:51:15;40.40;;;16.23;;
26953;SDS011;14508;50.924;11.600;2023-03-01T04:53:44;47.58;;;16.02;;
26953;SDS011;14508;50.924;11.600;2023-03-01T04:56:13;50.22;;;16.35;;
26953;SDS011;14508;50.924;11.600;2023-03-01T04:58:41;40.88;;;15.98;;
26953;SDS011;14508;50.924;11.600;2023-03-01T05:01:10;35.67;;;15.05;;
26953;SDS011;14508;50.924;11.600;2023-03-01T05:03:42;41.03;;;15.50;;
26953;SDS011;14508;50.924;11.600;2023-03-01T05:06:12;49.42;;;17.38;;
26953;SDS011;14508;50.924;11.600;2023-03-01T05:08:40;47.13;;;16.77;;
26953;SDS011;14508;50.924;11.600;2023-03-01T05:11:09;37.10;;;14.60;;
26953;SDS011;14508;50.924;11.600;2023-03-01T05:13:39;39.88;;;14.88;;
26953;SDS011;14508;50.924;11.600;2023-03-01T05:16:08;44.22;;;17.17;;
26953;SDS011;14508;50.924;11.600;2023-03-01T05:18:37;39.63;;;15.18;;
26953;SDS011;14508;50.924;11.600;2023-03-01T05:21:07;42.20;;;16.65;;
26953;SDS011;14508;50.924;11.600;2023-03-01T05:23:37;42.28;;;15.93;;
26953;SDS011;14508;50.924;11.600;2023-03-01T05:26:06;43.38;;;16.00;;
26953;SDS011;14508;50.924;11.600;2023-03-01T05:28:53;42.65;;;15.40;;
26953;SDS011;14508;50.924;11.600;2023-03-01T05:31:25;45.58;;;17.02;;
26953;SDS011;14508;50.924;11.600;2023-03-01T05:33:53;46.10;;;17.30;;
26953;SDS011;14508;50.924;11.600;2023-03-01T05:36:20;46.92;;;16.48;;
26953;SDS011;14508;50.924;11.600;2023-03-01T05:38:48;49.63;;;16.95;;
26953;SDS011;14508;50.924;11.600;2023-03-01T05:41:16;47.13;;;15.73;;
26953;SDS011;14508;50.924;11.600;2023-03-01T05:43:44;42.15;;;16.52;;
26953;SDS011;14508;50.924;11.600;2023-03-01T05:46:13;43.75;;;16.00;;
26953;SDS011;14508;50.924;11.600;2023-03-01T05:48:41;40.22;;;15.10;;
26953;SDS011;14508;50.924;11.600;2023-03-01T05:51:09;40.95;;;16.90;;
26953;SDS011;14508;50.924;11.600;2023-03-01T05:53:53;45.70;;;16.73;;
26953;SDS011;14508;50.924;11.600;2023-03-01T05:56:21;39.05;;;16.15;;
26953;SDS011;14508;50.924;11.600;2023-03-01T05:58:49;45.58;;;16.17;;
26953;SDS011;14508;50.924;11.600;2023-03-01T06:01:18;43.40;;;15.63;;
26953;SDS011;14508;50.924;11.600;2023-03-01T06:03:46;40.58;;;16.52;;
26953;SDS011;14508;50.924;11.600;2023-03-01T06:06:14;37.53;;;16.05;;
26953;SDS011;14508;50.924;11.600;2023-03-01T06:08:42;41.60;;;15.98;;
26953;SDS011;14508;50.924;11.600;2023-03-01T06:11:09;38.60;;;15.00;;
26953;SDS011;14508;50.924;11.600;2023-03-01T06:13:37;41.85;;;15.93;;
26953;SDS011;14508;50.924;11.600;2023-03-01T06:16:05;45.80;;;18.08;;
26953;SDS011;14508;50.924;11.600;2023-03-01T06:18:35;47.83;;;18.52;;
26953;SDS011;14508;50.924;11.600;2023-03-01T06:21:04;39.42;;;16.65;;
26953;SDS011;14508;50.924;11.600;2023-03-01T06:23:32;50.42;;;17.60;;
26953;SDS011;14508;50.924;11.600;2023-03-01T06:26:04;36.30;;;16.13;;
26953;SDS011;14508;50.924;11.600;2023-03-01T06:28:33;41.22;;;15.65;;
26953;SDS011;14508;50.924;11.600;2023-03-01T06:31:01;39.88;;;15.88;;
26953;SDS011;14508;50.924;11.600;2023-03-01T06:33:29;43.90;;;17.13;;
26953;SDS011;14508;50.924;11.600;2023-03-01T06:35:58;44.83;;;17.30;;
26953;SDS011;14508;50.924;11.600;2023-03-01T06:38:27;44.55;;;16.33;;
26953;SDS011;14508;50.924;11.600;2023-03-01T06:40:55;42.05;;;17.27;;
26953;SDS011;14508;50.924;11.600;2023-03-01T06:43:23;43.58;;;16.30;;
26953;SDS011;14508;50.924;11.600;2023-03-01T06:45:51;47.22;;;15.35;;
26953;SDS011;14508;50.924;11.600;2023-03-01T06:48:19;43.33;;;16.67;;
26953;SDS011;14508;50.924;11.600;2023-03-01T06:50:47;44.95;;;17.20;;
26953;SDS011;14508;50.924;11.600;2023-03-01T06:53:16;46.15;;;17.33;;
26953;SDS011;14508;50.924;11.600;2023-03-01T06:55:44;48.65;;;18.23;;
26953;SDS011;14508;50.924;11.600;2023-03-01T06:58:12;52.20;;;18.38;;
26953;SDS011;14508;50.924;11.600;2023-03-01T07:00:40;45.72;;;18.15;;
26953;SDS011;14508;50.924;11.600;2023-03-01T07:03:09;39.70;;;16.70;;
26953;SDS011;14508;50.924;11.600;2023-03-01T07:05:37;45.33;;;17.30;;
26953;SDS011;14508;50.924;11.600;2023-03-01T07:08:05;48.60;;;18.80;;
26953;SDS011;14508;50.924;11.600;2023-03-01T07:10:34;37.90;;;15.20;;
26953;SDS011;14508;50.924;11.600;2023-03-01T07:13:02;44.13;;;17.65;;
26953;SDS011;14508;50.924;11.600;2023-03-01T07:15:32;45.05;;;17.23;;
26953;SDS011;14508;50.924;11.600;2023-03-01T07:18:00;51.80;;;16.48;;
26953;SDS011;14508;50.924;11.600;2023-03-01T07:20:28;49.38;;;19.05;;
26953;SDS011;14508;50.924;11.600;2023-03-01T07:22:56;52.22;;;17.52;;
26953;SDS011;14508;50.924;11.600;2023-03-01T07:25:25;45.88;;;17.83;;
26953;SDS011;14508;50.924;11.600;2023-03-01T07:27:54;49.90;;;20.05;;
26953;SDS011;14508;50.924;11.600;2023-03-01T07:30:22;50.78;;;20.02;;
26953;SDS011;14508;50.924;11.600;2023-03-01T07:32:52;57.28;;;21.25;;
26953;SDS011;14508;50.924;11.600;2023-03-01T07:35:21;58.35;;;21.30;;
26953;SDS011;14508;50.924;11.600;2023-03-01T07:37:49;56.92;;;19.83;;
26953;SDS011;14508;50.924;11.600;2023-03-01T07:40:17;52.13;;;20.95;;
26953;SDS011;14508;50.924;11.600;2023-03-01T07:42:46;56.80;;;22.02;;
26953;SDS011;14508;50.924;11.600;2023-03-01T07:45:15;54.17;;;21.20;;
26953;SDS011;14508;50.924;11.600;2023-03-01T07:47:43;63.10;;;22.38;;
26953;SDS011;14508;50.924;11.600;2023-03-01T07:50:11;47.85;;;20.33;;
26953;SDS011;14508;50.924;11.600;2023-03-01T07:52:39;50.50;;;20.02;;
26953;SDS011;14508;50.924;11.600;2023-03-01T07:55:08;60.20;;;20.88;;
26953;SDS011;14508;50.924;11.600;2023-03-01T07:57:36;46.00;;;17.55;;
26953;SDS011;14508;50.924;11.600;2023-03-01T08:02:39;42.88;;;19.10;;
26953;SDS011;14508;50.924;11.600;2023-03-01T08:05:08;51.65;;;18.05;;
26953;SDS011;14508;50.924;11.600;2023-03-01T08:07:36;44.33;;;18.67;;
26953;SDS011;14508;50.924;11.600;2023-03-01T08:10:05;47.00;;;17.90;;
26953;SDS011;14508;50.924;11.600;2023-03-01T08:12:33;52.80;;;17.70;;
26953;SDS011;14508;50.924;11.600;2023-03-01T08:15:01;43.05;;;18.35;;
26953;SDS011;14508;50.924;11.600;2023-03-01T08:17:29;38.80;;;16.98;;
26953;SDS011;14508;50.924;11.600;2023-03-01T08:19:58;48.30;;;18.40;;
26953;SDS011;14508;50.924;11.600;2023-03-01T08:22:26;45.22;;;17.95;;
26953;SDS011;14508;50.924;11.600;2023-03-01T08:24:54;36.88;;;17.65;;
26953;SDS011;14508;50.924;11.600;2023-03-01T08:27:22;45.35;;;17.80;;
26953;SDS011;14508;50.924;11.600;2023-03-01T08:29:50;48.67;;;17.52;;
26953;SDS011;14508;50.924;11.600;2023-03-01T08:32:18;40.08;;;16.33;;
26953;SDS011;14508;50.924;11.600;2023-03-01T08:34:46;36.30;;;15.90;;
26953;SDS011;14508;50.924;11.600;2023-03-01T08:37:15;37.35;;;15.82;;
26953;SDS011;14508;50.924;11.600;2023-03-01T08:39:43;40.85;;;16.85;;
26953;SDS011;14508;50.924;11.600;2023-03-01T08:42:11;43.53;;;16.88;;
26953;SDS011;14508;50.924;11.600;2023-03-01T08:44:39;34.88;;;15.32;;
26953;SDS011;14508;50.924;11.600;2023-03-01T08:47:07;34.75;;;15.77;;
26953;SDS011;14508;50.924;11.600;2023-03-01T08:49:35;37.30;;;14.88;;
26953;SDS011;14508;50.924;11.600;2023-03-01T08:52:02;39.22;;;15.30;;
26953;SDS011;14508;50.924;11.600;2023-03-01T08:54:32;33.03;;;15.55;;
26953;SDS011;14508;50.924;11.600;2023-03-01T08:57:00;38.50;;;15.13;;
26953;SDS011;14508;50.924;11.600;2023-03-01T08:59:28;39.13;;;15.05;;
26953;SDS011;14508;50.924;11.600;2023-03-01T09:02:01;39.17;;;15.40;;
26953;SDS011;14508;50.924;11.600;2023-03-01T09:04:29;42.58;;;16.90;;
26953;SDS011;14508;50.924;11.600;2023-03-01T09:06:57;37.00;;;15.18;;
26953;SDS011;14508;50.924;11.600;2023-03-01T09:09:25;33.83;;;15.07;;
26953;SDS011;14508;50.924;11.600;2023-03-01T09:11:54;39.05;;;16.85;;
26953;SDS011;14508;50.924;11.600;2023-03-01T09:14:22;45.70;;;17.23;;
26953;SDS011;14508;50.924;11.600;2023-03-01T09:16:50;31.73;;;15.18;;
26953;SDS011;14508;50.924;11.600;2023-03-01T09:19:18;34.05;;;14.65;;
26953;SDS011;14508;50.924;11.600;2023-03-01T09:21:46;40.20;;;16.83;;
26953;SDS011;14508;50.924;11.600;2023-03-01T09:24:20;32.30;;;14.45;;
26953;SDS011;14508;50.924;11.600;2023-03-01T09:26:49;44.85;;;16.02;;
26953;SDS011;14508;50.924;11.600;2023-03-01T09:29:21;34.92;;;15.50;;
26953;SDS011;14508;50.924;11.600;2023-03-01T09:31:49;33.95;;;16.70;;
26953;SDS011;14508;50.924;11.600;2023-03-01T09:34:17;42.50;;;15.10;;
26953;SDS011;14508;50.924;11.600;2023-03-01T09:36:49;36.80;;;15.23;;
26953;SDS011;14508;50.924;11.600;2023-03-01T09:39:17;29.67;;;13.27;;
26953;SDS011;14508;50.924;11.600;2023-03-01T09:41:47;41.42;;;14.57;;
26953;SDS011;14508;50.924;11.600;2023-03-01T09:44:23;36.10;;;14.38;;
26953;SDS011;14508;50.924;11.600;2023-03-01T09:46:58;35.30;;;13.70;;
26953;SDS011;14508;50.924;11.600;2023-03-01T09:49:27;31.20;;;13.57;;
26953;SDS011;14508;50.924;11.600;2023-03-01T09:51:58;38.08;;;13.90;;
26953;SDS011;14508;50.924;11.600;2023-03-01T09:54:30;27.70;;;13.63;;
26953;SDS011;14508;50.924;11.600;2023-03-01T09:57:05;26.83;;;12.77;;
26953;SDS011;14508;50.924;11.600;2023-03-01T09:59:45;34.42;;;14.18;;
26953;SDS011;14508;50.924;11.600;2023-03-01T10:02:24;31.90;;;13.88;;
26953;SDS011;14508;50.924;11.600;2023-03-01T10:04:59;28.77;;;12.27;;
26953;SDS011;14508;50.924;11.600;2023-03-01T10:07:38;29.02;;;13.52;;
26953;SDS011;14508;50.924;11.600;2023-03-01T10:10:16;31.20;;;13.02;;
26953;SDS011;14508;50.924;11.600;2023-03-01T10:12:53;35.33;;;13.35;;
26953;SDS011;14508;50.924;11.600;2023-03-01T10:15:28;33.80;;;14.00;;
26953;SDS011;14508;50.924;11.600;2023-03-01T10:18:01;28.45;;;12.73;;
26953;SDS011;14508;50.924;11.600;2023-03-01T10:20:36;33.97;;;12.82;;
26953;SDS011;14508;50.924;11.600;2023-03-01T10:23:13;33.85;;;13.07;;
26953;SDS011;14508;50.924;11.600;2023-03-01T10:25:47;41.15;;;14.27;;
26953;SDS011;14508;50.924;11.600;2023-03-01T10:28:24;32.08;;;13.77;;
26953;SDS011;14508;50.924;11.600;2023-03-01T10:30:58;31.90;;;12.00;;
26953;SDS011;14508;50.924;11.600;2023-03-01T10:33:27;32.85;;;13.15;;
26953;SDS011;14508;50.924;11.600;2023-03-01T10:35:58;33.13;;;13.48;;
26953;SDS011;14508;50.924;11.600;2023-03-01T10:38:26;32.05;;;13.57;;
26953;SDS011;14508;50.924;11.600;2023-03-01T10:40:58;31.10;;;13.00;;
26953;SDS011;14508;50.924;11.600;2023-03-01T10:43:32;33.53;;;13.60;;
26953;SDS011;14508;50.924;11.600;2023-03-01T10:46:23;38.80;;;12.57;;
26953;SDS011;14508;50.924;11.600;2023-03-01T10:49:05;40.10;;;14.77;;
26953;SDS011;14508;50.924;11.600;2023-03-01T10:51:35;29.48;;;13.85;;
26953;SDS011;14508;50.924;11.600;2023-03-01T10:54:03;29.70;;;13.55;;
26953;SDS011;14508;50.924;11.600;2023-03-01T10:56:45;33.03;;;13.45;;
26953;SDS011;14508;50.924;11.600;2023-03-01T10:59:19;31.45;;;14.98;;
26953;SDS011;14508;50.924;11.600;2023-03-01T11:02:15;23.30;;;13.35;;
26953;SDS011;14508;50.924;11.600;2023-03-01T11:04:58;26.25;;;12.25;;
26953;SDS011;14508;50.924;11.600;2023-03-01T11:07:28;32.35;;;13.55;;
26953;SDS011;14508;50.924;11.600;2023-03-01T11:09:56;28.27;;;13.90;;
26953;SDS011;14508;50.924;11.600;2023-03-01T11:12:24;26.08;;;12.82;;
26953;SDS011;14508;50.924;11.600;2023-03-01T11:14:55;32.17;;;14.82;;
26953;SDS011;14508;50.924;11.600;2023-03-01T11:17:27;30.30;;;13.13;;
26953;SDS011;14508;50.924;11.600;2023-03-01T11:20:06;29.98;;;13.45;;
26953;SDS011;14508;50.924;11.600;2023-03-01T11:22:45;36.78;;;14.88;;
26953;SDS011;14508;50.924;11.600;2023-03-01T11:25:16;32.35;;;13.13;;
26953;SDS011;14508;50.924;11.600;2023-03-01T11:27:46;32.72;;;12.80;;
26953;SDS011;14508;50.924;11.600;2023-03-01T11:30:15;27.65;;;13.00;;
26953;SDS011;14508;50.924;11.600;2023-03-01T11:32:51;38.47;;;14.05;;
26953;SDS011;14508;50.924;11.600;2023-03-01T11:35:28;35.88;;;13.02;;
26953;SDS011;14508;50.924;11.600;2023-03-01T11:38:04;32.05;;;14.90;;
26953;SDS011;14508;50.924;11.600;2023-03-01T11:40:44;31.08;;;12.88;;
26953;SDS011;14508;50.924;11.600;2023-03-01T11:43:15;29.33;;;13.85;;
26953;SDS011;14508;50.924;11.600;2023-03-01T11:45:54;28.17;;;13.48;;
26953;SDS011;14508;50.924;11.600;2023-03-01T11:48:46;33.92;;;13.63;;
26953;SDS011;14508;50.924;11.600;2023-03-01T11:51:29;33.50;;;13.48;;
26953;SDS011;14508;50.924;11.600;2023-03-01T11:54:18;29.50;;;13.93;;
26953;SDS011;14508;50.924;11.600;2023-03-01T11:56:54;28.85;;;12.93;;
26953;SDS011;14508;50.924;11.600;2023-03-01T11:59:45;33.17;;;14.32;;
26953;SDS011;14508;50.924;11.600;2023-03-01T12:02:36;30.65;;;13.93;;
26953;SDS011;14508;50.924;11.600;2023-03-01T12:05:18;34.95;;;14.18;;
26953;SDS011;14508;50.924;11.600;2023-03-01T12:07:58;31.30;;;13.10;;
26953;SDS011;14508;50.924;11.600;2023-03-01T12:10:35;28.52;;;13.68;;
26953;SDS011;14508;50.924;11.600;2023-03-01T12:13:19;30.58;;;14.40;;
26953;SDS011;14508;50.924;11.600;2023-03-01T12:16:10;32.88;;;14.30;;
26953;SDS011;14508;50.924;11.600;2023-03-01T12:19:08;29.02;;;13.82;;
26953;SDS011;14508;50.924;11.600;2023-03-01T12:21:52;36.85;;;13.73;;
26953;SDS011;14508;50.924;11.600;2023-03-01T12:27:42;30.48;;;13.93;;
26953;SDS011;14508;50.924;11.600;2023-03-01T12:30:35;31.48;;;13.13;;
26953;SDS011;14508;50.924;11.600;2023-03-01T12:33:17;33.58;;;14.27;;
26953;SDS011;14508;50.924;11.600;2023-03-01T12:35:55;40.67;;;15.98;;
26953;SDS011;14508;50.924;11.600;2023-03-01T12:38:45;26.77;;;13.25;;
26953;SDS011;14508;50.924;11.600;2023-03-01T12:41:23;37.38;;;13.90;;
26953;SDS011;14508;50.924;11.600;2023-03-01T12:44:07;33.85;;;14.77;;
26953;SDS011;14508;50.924;11.600;2023-03-01T12:46:48;34.70;;;14.45;;
26953;SDS011;14508;50.924;11.600;2023-03-01T12:49:30;33.97;;;14.33;;
26953;SDS011;14508;50.924;11.600;2023-03-01T12:52:02;26.88;;;12.77;;
26953;SDS011;14508;50.924;11.600;2023-03-01T12:54:38;32.13;;;13.00;;
26953;SDS011;14508;50.924;11.600;2023-03-01T12:57:12;34.88;;;13.73;;
26953;SDS011;14508;50.924;11.600;2023-03-01T12:59:49;37.58;;;15.15;;
26953;SDS011;14508;50.924;11.600;2023-03-01T13:02:30;35.92;;;13.18;;
26953;SDS011;14508;50.924;11.600;2023-03-01T13:05:06;37.03;;;14.75;;
26953;SDS011;14508;50.924;11.600;2023-03-01T13:07:52;29.38;;;14.73;;
26953;SDS011;14508;50.924;11.600;2023-03-01T13:10:29;31.17;;;13.10;;
26953;SDS011;14508;50.924;11.600;2023-03-01T13:13:10;29.42;;;12.93;;
26953;SDS011;14508;50.924;11.600;2023-03-01T13:15:40;27.05;;;12.63;;
26953;SDS011;14508;50.924;11.600;2023-03-01T13:18:28;28.73;;;12.85;;
26953;SDS011;14508;50.924;11.600;2023-03-01T13:20:58;29.52;;;12.95;;
26953;SDS011;14508;50.924;11.600;2023-03-01T13:23:29;28.02;;;12.02;;
26953;SDS011;14508;50.924;11.600;2023-03-01T13:26:08;34.25;;;12.48;;
26953;SDS011;14508;50.924;11.600;2023-03-01T13:28:46;29.50;;;12.60;;
26953;SDS011;14508;50.924;11.600;2023-03-01T13:37:25;27.15;;;11.65;;
26953;SDS011;14508;50.924;11.600;2023-03-01T13:40:00;27.65;;;12.65;;
26953;SDS011;14508;50.924;11.600;2023-03-01T13:42:37;27.10;;;11.70;;
26953;SDS011;14508;50.924;11.600;2023-03-01T13:45:31;26.15;;;10.63;;
26953;SDS011;14508;50.924;11.600;2023-03-01T13:48:08;39.50;;;12.25;;
26953;SDS011;14508;50.924;11.600;2023-03-01T13:50:38;28.00;;;11.10;;
26953;SDS011;14508;50.924;11.600;2023-03-01T13:53:14;25.95;;;11.57;;
26953;SDS011;14508;50.924;11.600;2023-03-01T13:55:46;23.20;;;10.43;;
26953;SDS011;14508;50.924;11.600;2023-03-01T13:58:23;36.25;;;13.18;;
26953;SDS011;14508;50.924;11.600;2023-03-01T14:00:56;27.33;;;11.85;;
26953;SDS011;14508;50.924;11.600;2023-03-01T14:03:26;23.08;;;10.55;;
26953;SDS011;14508;50.924;11.600;2023-03-01T14:06:03;27.73;;;11.68;;
26953;SDS011;14508;50.924;11.600;2023-03-01T14:08:41;24.20;;;10.85;;
26953;SDS011;14508;50.924;11.600;2023-03-01T14:11:29;26.75;;;10.40;;
26953;SDS011;14508;50.924;11.600;2023-03-01T14:14:25;28.52;;;11.93;;
26953;SDS011;14508;50.924;11.600;2023-03-01T14:17:11;23.45;;;10.65;;
26953;SDS011;14508;50.924;11.600;2023-03-01T14:20:11;34.83;;;11.45;;
26953;SDS011;14508;50.924;11.600;2023-03-01T14:22:45;27.63;;;10.63;;
26953;SDS011;14508;50.924;11.600;2023-03-01T14:25:22;26.15;;;11.23;;
26953;SDS011;14508;50.924;11.600;2023-03-01T14:27:57;30.08;;;10.38;;
26953;SDS011;14508;50.924;11.600;2023-03-01T14:30:43;25.20;;;10.48;;
26953;SDS011;14508;50.924;11.600;2023-03-01T14:33:18;24.83;;;9.85;;
26953;SDS011;14508;50.924;11.600;2023-03-01T14:35:58;22.80;;;9.73;;
26953;SDS011;14508;50.924;11.600;2023-03-01T14:38:31;25.63;;;11.60;;
26953;SDS011;14508;50.924;11.600;2023-03-01T14:41:01;24.50;;;10.25;;
26953;SDS011;14508;50.924;11.600;2023-03-01T14:43:32;25.77;;;10.60;;
26953;SDS011;14508;50.924;11.600;2023-03-01T14:46:02;27.38;;;11.02;;
26953;SDS011;14508;50.924;11.600;2023-03-01T14:48:30;27.75;;;10.30;;